Flight Track Log - Related Links

Times and Time Zones

All times are in EDT time to prevent confusion due to time zone crossing. See the SWA378 flight status page for this flight to view local times or setup timezone preferences in your user account.

Time Position Orientation Groundspeed Altitude Reporting Facility
EDT Latitude Longitude Course Direction KTS MPH feet Rate Location/Type
Tue 08:15:19 PM 36.9369 -76.1817 13° North 216 249 3,400  Level Washington Center
Tue 08:16:01 PM 36.9450 -76.2364 280° West 270 311 5,600 3,612 Climbing Washington Center
Tue 08:17:02 PM 36.9611 -76.3275 283° West 276 318 9,600 3,738 Climbing Washington Center
Tue 08:18:03 PM 37.0044 -76.4189 301° West 276 318 13,200 3,227 Climbing Washington Center
Tue 08:19:01 PM 37.0494 -76.5183 300° West 300 345 16,000 1,424 Climbing Washington Center
Tue 08:20:01 PM 37.0947 -76.6125 301° West 312 359 16,000  Level Washington Center
Tue 08:21:01 PM 37.1417 -76.7122 301° West 317 365 16,000 -50 Level Washington Center
Tue 08:22:02 PM 37.1889 -76.8144 300° West 329 379 15,900  Descending Washington Center
Tue 08:23:02 PM 37.2356 -76.9169 300° West 334 384 16,000 50 Climbing Washington Center
Tue 08:24:03 PM 37.2658 -77.0272 289° West 339 390 16,000  Level Washington Center
Tue 08:25:01 PM 37.2456 -77.1469 258° West 334 384 16,000  Level Washington Center
Tue 08:26:02 PM 37.2231 -77.2611 256° West 339 390 16,000  Level Washington Center
Tue 08:27:02 PM 37.2025 -77.3806 258° West 344 396 16,000  Level Washington Center
Tue 08:28:01 PM 37.1797 -77.5000 257° West 355 409 16,000  Level Washington Center
Tue 08:29:01 PM 37.1592 -77.6219 258° West 355 409 16,000  Level Washington Center
Tue 08:30:02 PM 37.1383 -77.7414 258° West 355 409 16,000 50 Level Washington Center
Tue 08:31:01 PM 37.1172 -77.8606 258° West 355 409 16,100  Climbing Washington Center
Tue 08:32:01 PM 37.0961 -77.9769 257° West 355 409 16,000 -50 Descending Washington Center
Tue 08:33:02 PM 37.1083 -78.0947 277° West 338 389 16,000  Level Washington Center
Tue 08:34:02 PM 37.1958 -78.1106 352° North 240 276 16,000  Level Washington Center
Tue 08:35:03 PM 37.2786 -78.0403 34° Northeast 251 289 16,000  Level Washington Center
Tue 08:36:03 PM 37.3611 -77.9722 33° Northeast 302 348 16,000  Level Washington Center
Tue 08:37:04 PM 37.4439 -77.9042 33° Northeast 316 364 16,000 50 Level Washington Center
Tue 08:38:02 PM 37.5222 -77.8411 33° Northeast 329 379 16,100  Climbing Washington Center
Tue 08:39:03 PM 37.6028 -77.7728 34° Northeast 335 386 16,000 -50 Descending Washington Center
Tue 08:40:03 PM 37.6608 -77.6747 53° Northeast 335 386 16,000  Level Washington Center
Tue 08:41:03 PM 37.7208 -77.5767 52° Northeast 345 397 16,000  Level Washington Center
Tue 08:42:01 PM 37.7972 -77.5075 36° Northeast 340 391 16,000  Level Washington Center
Tue 08:43:01 PM 37.8836 -77.4544 26° Northeast 340 391 16,000  Level Washington Center
Tue 08:44:02 PM 37.9697 -77.4014 26° Northeast 334 384 16,000  Level Washington Center
Tue 08:45:03 PM 38.0456 -77.3558 25° Northeast 339 390 16,000  Level Washington Center
Tue 08:46:01 PM 38.1297 -77.3022 27° Northeast 334 384 16,000  Level Washington Center
Tue 08:47:02 PM 38.2161 -77.2486 26° Northeast 334 384 16,000  Level Washington Center
Tue 08:48:02 PM 38.2981 -77.1922 28° Northeast 334 384 16,000 -500 Level Washington Center
Tue 08:49:02 PM 38.3822 -77.1386 27° Northeast 328 377 15,000 -893 Descending Washington Center
Tue 08:50:03 PM 38.4436 -77.0656 43° Northeast 315 362 14,200 -1,513 Descending Washington Center
Tue 08:51:01 PM 38.5072 -76.9847 45° Northeast 292 336 12,000 -1,109 Descending Washington Center
Tue 08:52:02 PM 38.5664 -76.9167 42° Northeast 281 323 12,000 -443 Level Washington Center
Tue 08:53:03 PM 38.6211 -76.8458 45° Northeast 276 318 11,100 -1,131 Descending Washington Center
Tue 08:54:04 PM 38.6761 -76.7803 43° Northeast 276 318 9,700 -1,084 Descending Washington Center
Tue 08:55:38 PM 38.7500 -76.6500 54° Northeast 255 293 8,300 -1,095 Descending Potomac TRACON
Tue 08:56:32 PM 38.7833 -76.5833 57° Northeast 256 295 7,000 -1,211 Descending Potomac TRACON
Tue 08:57:32 PM 38.8333 -76.5333 38° Northeast 261 300 6,000 -1,333 Descending Potomac TRACON
Tue 08:58:38 PM 38.9000 -76.5667 339° North 268 308 4,200 -1,000 Descending Potomac TRACON
Tue 08:59:32 PM 38.9667 -76.5833 349° North 258 297 4,000 -105 Descending Potomac TRACON
Tue 09:00:32 PM 39.0000 -76.6667 297° West 269 310 4,000  Level Potomac TRACON
Tue 09:01:32 PM 39.0500 -76.7500 308° West 270 311 4,000 -100 Level Potomac TRACON
Tue 09:02:32 PM 39.0833 -76.8333 297° West 257 296 3,800 -600 Descending Potomac TRACON
Tue 09:03:32 PM 39.1000 -76.9167 284° West 239 275 2,800 -850 Descending Potomac TRACON
Tue 09:04:32 PM 39.1500 -76.9167 360° North 187 215 2,100 -417 Descending Potomac TRACON
Tue 09:05:27 PM 39.1833 -76.8833 38° Northeast 175 201 2,000 -52 Descending Potomac TRACON
Tue 09:06:27 PM 39.1833 -76.8333 90° East 157 181 2,000 -211 Level Potomac TRACON
Tue 09:07:21 PM 39.1833 -76.7833 90° East 152 175 1,600 -550 Descending Potomac TRACON
Tue 09:08:27 PM 39.1833 -76.7333 90° East 112 129 900 -595 Descending Potomac TRACON
Tue 09:09:22 PM 39.1833 -76.7000 90° East 115 132 400 -545 Descending Potomac TRACON
Tue 09:11:00 PM 39.1667 -76.6667 85° East  Level FlightAware Approximate

Login

Don't have an account? Register now (free) for customized features, flight alerts, and more!